Time;durP1;ratioP1;P1;durP2;ratioP2;P2;SDS_P1;SDS_P2;PMS_P1;PMS_P2;Temp;Humidity;BMP_temperature;BMP_pressure;BME280_temperature;BME280_humidity;BME280_pressure;Samples;Min_cycle;Max_cycle;Signal;HPM_P1;HPM_P2
2021/08/08 00:01:00;;;;;;;4.32;1.10;;;17.30;99.90;;;;;;5109327;28;20047;-70
2021/08/08 00:03:26;;;;;;;1.25;0.70;;;17.30;99.90;;;;;;5109192;28;20513;-70
2021/08/08 00:05:52;;;;;;;4.05;1.25;;;17.20;99.90;;;;;;5109186;28;20066;-70
2021/08/08 00:08:20;;;;;;;3.42;0.85;;;17.20;99.90;;;;;;5093507;28;20028;-70
2021/08/08 00:10:47;;;;;;;1.63;0.80;;;17.20;99.90;;;;;;5093732;28;20040;-70
2021/08/08 00:13:15;;;;;;;3.17;0.80;;;17.30;99.90;;;;;;5109125;28;20483;-71
2021/08/08 00:15:41;;;;;;;2.22;1.08;;;17.30;99.90;;;;;;5107914;28;20052;-70
2021/08/08 00:18:08;;;;;;;2.72;1.00;;;17.30;99.90;;;;;;5108764;28;20028;-70
2021/08/08 00:20:35;;;;;;;1.90;0.90;;;17.30;99.90;;;;;;5091877;28;20089;-71
2021/08/08 00:23:01;;;;;;;2.25;0.80;;;17.20;99.90;;;;;;5093243;28;20024;-70
2021/08/08 00:25:27;;;;;;;2.38;0.80;;;17.20;99.90;;;;;;5093025;28;20066;-70
2021/08/08 00:27:53;;;;;;;4.05;1.38;;;17.20;99.90;;;;;;5093106;28;20028;-70
2021/08/08 00:30:19;;;;;;;1.30;0.60;;;17.30;99.90;;;;;;5092969;28;20377;-70
2021/08/08 00:32:45;;;;;;;3.95;0.90;;;17.20;99.90;;;;;;5108724;28;20115;-70
2021/08/08 00:35:12;;;;;;;1.05;0.55;;;17.20;99.90;;;;;;5093001;28;20040;-71
2021/08/08 00:37:42;;;;;;;1.23;0.63;;;17.20;99.90;;;;;;5108847;28;20035;-70
2021/08/08 00:40:09;;;;;;;1.43;0.70;;;17.20;99.90;;;;;;5108071;28;20460;-70
2021/08/08 00:42:35;;;;;;;1.20;0.68;;;17.20;99.90;;;;;;5091399;28;20051;-70
2021/08/08 00:45:00;;;;;;;3.58;0.70;;;17.20;99.90;;;;;;5092902;28;20071;-71
2021/08/08 00:47:26;;;;;;;4.00;0.47;;;17.20;99.90;;;;;;5092636;28;20036;-71
2021/08/08 00:49:52;;;;;;;1.50;0.60;;;17.10;99.90;;;;;;5108694;28;20636;-71
2021/08/08 00:52:18;;;;;;;2.25;0.57;;;17.10;99.90;;;;;;5108260;28;20036;-70
2021/08/08 00:54:44;;;;;;;1.33;0.55;;;17.00;99.90;;;;;;5108697;28;20096;-70
2021/08/08 00:57:11;;;;;;;0.90;0.40;;;17.00;99.90;;;;;;5092232;28;20477;-70
2021/08/08 00:59:37;;;;;;;3.13;0.80;;;16.90;99.90;;;;;;5092620;28;20024;-70
2021/08/08 01:02:04;;;;;;;1.90;0.55;;;16.90;99.90;;;;;;5092456;28;20028;-70
2021/08/08 01:04:35;;;;;;;3.70;0.60;;;16.90;99.90;;;;;;5108247;28;20024;-70
2021/08/08 01:07:05;;;;;;;3.22;0.90;;;16.80;99.90;;;;;;5107985;28;20055;-70
2021/08/08 01:09:37;;;;;;;1.55;0.73;;;16.70;99.90;;;;;;5092718;28;20051;-70
2021/08/08 01:12:03;;;;;;;2.15;0.77;;;16.70;99.90;;;;;;5108074;28;20051;-70
2021/08/08 01:14:30;;;;;;;3.38;0.77;;;16.80;99.90;;;;;;5090817;28;20488;-70
2021/08/08 01:17:01;;;;;;;1.50;0.47;;;16.70;99.90;;;;;;5108421;28;20050;-70
2021/08/08 01:19:29;;;;;;;;;;;16.60;99.90;;;;;;5107861;28;20028;-70
2021/08/08 01:21:55;;;;;;;3.55;0.60;;;16.70;99.90;;;;;;5091342;28;19912;-69
2021/08/08 01:24:21;;;;;;;2.03;0.57;;;16.70;99.90;;;;;;5092016;28;20392;-69
2021/08/08 01:26:47;;;;;;;1.60;0.50;;;16.70;99.90;;;;;;5090735;28;20028;-69
2021/08/08 01:29:13;;;;;;;4.22;0.75;;;16.60;99.90;;;;;;5092285;28;20031;-70
2021/08/08 01:31:49;;;;;;;1.23;0.60;;;16.60;99.90;;;;;;5090921;28;20036;-69
2021/08/08 01:34:15;;;;;;;0.77;0.50;;;16.60;99.90;;;;;;5090825;28;20036;-70
2021/08/08 01:36:41;;;;;;;4.07;0.70;;;16.60;99.90;;;;;;5092006;28;20035;-70
2021/08/08 01:39:11;;;;;;;1.67;0.60;;;16.50;99.90;;;;;;5092273;28;20043;-70
2021/08/08 01:41:48;;;;;;;3.37;0.60;;;16.40;99.90;;;;;;5107651;28;20526;-70
2021/08/08 01:44:17;;;;;;;2.75;1.10;;;16.40;99.90;;;;;;5107245;28;20541;-69
2021/08/08 01:46:45;;;;;;;1.27;0.63;;;16.40;99.90;;;;;;5107505;28;20119;-70
2021/08/08 01:49:11;;;;;;;2.50;1.02;;;16.30;99.90;;;;;;5107817;28;20028;-70
2021/08/08 01:51:37;;;;;;;2.05;0.55;;;16.30;99.90;;;;;;5107548;28;20113;-70
2021/08/08 01:54:03;;;;;;;1.85;0.55;;;16.30;99.90;;;;;;5090920;28;20036;-69
2021/08/08 01:56:28;;;;;;;1.27;0.65;;;16.30;99.90;;;;;;5091868;28;20044;-70
2021/08/08 01:58:55;;;;;;;2.10;0.60;;;16.20;99.90;;;;;;5091798;28;20085;-70
2021/08/08 02:01:28;;;;;;;1.13;0.65;;;16.10;99.90;;;;;;5107439;28;20085;-70
2021/08/08 02:03:54;;;;;;;4.07;0.77;;;16.10;99.90;;;;;;5090929;28;20067;-70
2021/08/08 02:06:20;;;;;;;1.58;0.52;;;16.10;99.90;;;;;;5091714;28;20062;-70
2021/08/08 02:08:45;;;;;;;1.40;0.55;;;16.10;99.90;;;;;;5092007;28;20032;-70
2021/08/08 02:11:11;;;;;;;4.15;0.55;;;16.10;99.90;;;;;;5091697;28;20040;-70
2021/08/08 02:13:37;;;;;;;2.70;0.52;;;16.10;99.90;;;;;;5090741;28;20024;-69
2021/08/08 02:16:03;;;;;;;3.70;0.80;;;16.00;99.90;;;;;;5091620;28;20044;-69
2021/08/08 02:18:28;;;;;;;3.42;0.60;;;16.00;99.90;;;;;;5091805;28;20114;-69
2021/08/08 02:20:54;;;;;;;2.22;1.00;;;15.90;99.90;;;;;;5091773;28;20040;-69
2021/08/08 02:23:20;;;;;;;3.08;0.70;;;15.90;99.90;;;;;;5107507;28;20035;-69
2021/08/08 02:25:50;;;;;;;0.85;0.50;;;15.90;99.90;;;;;;5091566;28;20032;-69
2021/08/08 02:28:17;;;;;;;2.30;0.65;;;15.90;99.90;;;;;;5106665;28;20024;-69
2021/08/08 02:30:43;;;;;;;4.32;0.80;;;15.90;99.90;;;;;;5107719;28;20087;-69
2021/08/08 02:33:08;;;;;;;1.15;0.73;;;15.80;99.90;;;;;;5091760;28;20479;-69
2021/08/08 02:35:34;;;;;;;2.03;0.43;;;15.80;99.90;;;;;;5091451;28;20135;-69
2021/08/08 02:38:00;;;;;;;4.32;0.80;;;15.80;99.90;;;;;;5091755;28;20024;-70
2021/08/08 02:40:26;;;;;;;3.72;0.80;;;15.80;99.90;;;;;;5093826;28;20032;-69
2021/08/08 02:42:51;;;;;;;3.55;0.63;;;15.80;99.90;;;;;;5095045;28;20028;-70
2021/08/08 02:45:17;;;;;;;1.08;0.68;;;15.80;99.90;;;;;;5094910;28;20032;-70
2021/08/08 02:47:43;;;;;;;1.58;0.73;;;15.80;99.90;;;;;;5110763;28;20077;-70
2021/08/08 02:50:11;;;;;;;2.42;0.80;;;15.70;99.90;;;;;;5095187;28;20426;-69
2021/08/08 02:52:41;;;;;;;3.03;1.00;;;15.70;99.90;;;;;;5110972;28;20040;-70
2021/08/08 02:55:10;;;;;;;2.13;0.73;;;15.70;99.90;;;;;;5094901;28;20031;-70
2021/08/08 02:57:35;;;;;;;0.90;0.77;;;15.80;99.90;;;;;;5094774;28;20384;-69
2021/08/08 03:00:01;;;;;;;2.15;0.50;;;15.80;99.90;;;;;;5094582;28;20029;-69
2021/08/08 03:02:27;;;;;;;4.07;0.70;;;15.70;99.90;;;;;;5094579;28;20056;-70
2021/08/08 03:04:53;;;;;;;2.17;0.90;;;15.70;99.90;;;;;;5094684;28;20051;-69
2021/08/08 03:07:18;;;;;;;3.10;0.73;;;15.80;99.90;;;;;;5094691;28;20039;-70
2021/08/08 03:09:44;;;;;;;2.60;0.50;;;15.80;99.90;;;;;;5110491;28;20056;-70
2021/08/08 03:12:10;;;;;;;2.85;0.50;;;15.80;99.90;;;;;;5110394;28;20043;-69
2021/08/08 03:14:35;;;;;;;4.32;0.63;;;15.80;99.90;;;;;;5092942;28;20052;-70
2021/08/08 03:17:01;;;;;;;0.80;0.60;;;15.80;99.90;;;;;;5094537;28;20039;-69
2021/08/08 03:19:27;;;;;;;2.17;0.77;;;15.80;99.90;;;;;;5094526;28;20028;-69
2021/08/08 03:21:52;;;;;;;5.38;1.02;;;15.90;99.90;;;;;;5110019;28;20040;-70
2021/08/08 03:24:18;;;;;;;2.40;0.90;;;15.90;99.90;;;;;;5094107;28;20028;-69
2021/08/08 03:26:44;;;;;;;2.80;0.85;;;15.90;99.90;;;;;;5093108;28;20145;-69
2021/08/08 03:29:10;;;;;;;1.48;0.45;;;15.80;99.90;;;;;;5094194;28;20468;-69
2021/08/08 03:31:37;;;;;;;2.70;0.60;;;15.80;99.90;;;;;;5094058;28;20046;-69
2021/08/08 03:34:03;;;;;;;2.05;0.75;;;15.80;99.90;;;;;;5094341;28;20127;-70
2021/08/08 03:36:29;;;;;;;2.92;0.77;;;15.80;99.90;;;;;;5109622;28;20487;-69
2021/08/08 03:38:54;;;;;;;1.75;0.80;;;15.80;99.90;;;;;;5094205;28;20024;-70
2021/08/08 03:41:20;;;;;;;3.45;0.70;;;15.70;99.90;;;;;;5093843;28;20526;-70
2021/08/08 03:43:46;;;;;;;3.00;0.65;;;15.70;99.90;;;;;;5092650;28;20035;-70
2021/08/08 03:46:12;;;;;;;2.85;0.73;;;15.70;99.90;;;;;;5093907;28;20032;-69
2021/08/08 03:48:38;;;;;;;1.42;0.60;;;15.60;99.90;;;;;;5093790;28;20431;-70
2021/08/08 03:51:03;;;;;;;2.78;0.80;;;15.50;99.90;;;;;;5109363;28;20028;-70
2021/08/08 03:53:29;;;;;;;0.93;0.50;;;15.50;99.90;;;;;;5093592;28;20468;-69
2021/08/08 03:55:55;;;;;;;2.45;0.75;;;15.60;99.90;;;;;;5093517;28;20093;-69
2021/08/08 03:58:22;;;;;;;3.95;0.90;;;15.60;99.90;;;;;;5093534;28;20032;-69
2021/08/08 04:00:47;;;;;;;3.25;0.80;;;15.60;99.90;;;;;;5092313;28;20430;-70
2021/08/08 04:03:13;;;;;;;3.95;1.00;;;15.60;99.90;;;;;;5109512;28;20038;-70
2021/08/08 04:05:39;;;;;;;6.75;0.85;;;15.70;99.90;;;;;;5109020;28;20036;-69
2021/08/08 04:08:05;;;;;;;1.25;0.40;;;15.50;99.90;;;;;;5093797;28;20024;-69
2021/08/08 04:10:30;;;;;;;1.90;0.70;;;15.60;99.90;;;;;;5093313;28;20569;-70
2021/08/08 04:12:56;;;;;;;2.92;0.70;;;15.60;99.90;;;;;;5092143;28;20127;-70
2021/08/08 04:15:22;;;;;;;2.78;0.90;;;15.60;99.90;;;;;;5092914;28;20484;-69
2021/08/08 04:17:48;;;;;;;4.22;1.30;;;15.60;99.90;;;;;;5109008;28;20024;-70
2021/08/08 04:20:14;;;;;;;5.43;2.05;;;15.30;99.90;;;;;;5093436;28;20089;-69
2021/08/08 04:22:40;;;;;;;4.15;2.15;;;15.20;99.90;;;;;;5093328;28;20024;-70
2021/08/08 04:25:06;;;;;;;3.95;2.30;;;15.20;99.90;;;;;;5091860;28;20119;-69
2021/08/08 04:27:31;;;;;;;4.28;2.55;;;15.30;99.90;;;;;;5109007;28;20059;-70
2021/08/08 04:29:57;;;;;;;4.60;3.10;;;15.20;99.90;;;;;;5093240;28;20102;-69
2021/08/08 04:32:25;;;;;;;5.22;3.40;;;15.20;99.90;;;;;;5092716;28;20036;-69
2021/08/08 04:34:51;;;;;;;6.80;3.05;;;15.20;99.90;;;;;;5093175;28;20020;-69
2021/08/08 04:37:16;;;;;;;5.93;2.45;;;15.20;99.90;;;;;;5108940;28;20040;-69
2021/08/08 04:39:42;;;;;;;5.85;2.80;;;15.20;99.90;;;;;;5091655;28;20031;-69
2021/08/08 04:42:08;;;;;;;4.75;2.92;;;15.20;99.90;;;;;;5091530;28;20500;-69
2021/08/08 04:44:34;;;;;;;5.32;2.50;;;15.30;99.90;;;;;;5091752;28;20032;-70
2021/08/08 04:46:59;;;;;;;3.80;2.30;;;15.30;99.90;;;;;;5092934;28;20111;-70
2021/08/08 04:49:25;;;;;;;5.30;1.92;;;15.30;99.90;;;;;;5092616;28;20066;-70
2021/08/08 04:51:51;;;;;;;6.22;2.20;;;15.30;99.90;;;;;;5092669;28;20032;-70
2021/08/08 04:54:17;;;;;;;2.58;1.67;;;15.40;99.90;;;;;;5093055;28;20081;-70
2021/08/08 04:56:43;;;;;;;5.18;1.60;;;15.50;99.90;;;;;;5092582;28;20495;-70
2021/08/08 04:59:09;;;;;;;2.63;1.42;;;15.50;99.90;;;;;;5092713;28;20043;-69
2021/08/08 05:01:37;;;;;;;3.90;1.77;;;15.50;99.90;;;;;;5091768;28;20032;-70
2021/08/08 05:04:03;;;;;;;3.85;1.58;;;15.70;99.90;;;;;;5092579;28;20024;-69
2021/08/08 05:06:28;;;;;;;3.70;1.70;;;15.70;99.90;;;;;;5074091;28;20085;-69
2021/08/08 05:08:54;;;;;;;4.35;1.80;;;15.80;99.90;;;;;;5093043;28;20035;-69
2021/08/08 05:11:20;;;;;;;3.20;1.50;;;15.80;99.90;;;;;;5108192;28;20028;-69
2021/08/08 05:13:46;;;;;;;3.67;1.88;;;16.00;99.90;;;;;;5108419;28;20056;-69
2021/08/08 05:16:13;;;;;;;2.92;1.20;;;15.90;99.90;;;;;;5092209;28;20093;-69
2021/08/08 05:18:40;;;;;;;5.45;0.98;;;16.10;99.90;;;;;;5107862;28;20029;-70
2021/08/08 05:21:05;;;;;;;1.92;0.82;;;16.10;99.90;;;;;;5092253;28;20534;-70
2021/08/08 05:23:31;;;;;;;5.05;0.85;;;16.10;99.90;;;;;;5108106;28;20029;-70
2021/08/08 05:26:02;;;;;;;4.20;1.20;;;16.10;99.90;;;;;;5091259;28;20031;-70
2021/08/08 05:28:28;;;;;;;5.43;1.05;;;16.20;99.90;;;;;;5092556;28;20058;-69
2021/08/08 05:30:54;;;;;;;2.03;0.70;;;16.30;99.90;;;;;;5092053;28;20076;-69
2021/08/08 05:33:19;;;;;;;4.03;0.80;;;16.20;99.90;;;;;;5092548;28;20032;-68
2021/08/08 05:35:45;;;;;;;2.92;1.13;;;16.30;99.90;;;;;;5107675;28;20067;-69
2021/08/08 05:38:11;;;;;;;5.35;0.80;;;16.20;99.90;;;;;;5107928;28;20115;-66
2021/08/08 05:40:37;;;;;;;1.90;0.85;;;16.30;99.90;;;;;;5092161;28;20063;-71
2021/08/08 05:43:02;;;;;;;8.15;1.42;;;16.40;99.90;;;;;;5091682;28;20024;-67
2021/08/08 05:45:28;;;;;;;2.50;0.90;;;16.40;99.90;;;;;;5091794;28;20059;-66
2021/08/08 05:47:55;;;;;;;1.60;0.80;;;16.50;99.90;;;;;;5091934;28;20054;-69
2021/08/08 05:50:21;;;;;;;6.03;1.23;;;16.50;99.90;;;;;;5107498;28;20082;-68
2021/08/08 05:52:48;;;;;;;3.47;0.88;;;16.50;99.90;;;;;;5092139;28;20039;-67
2021/08/08 05:55:15;;;;;;;2.30;1.20;;;16.50;99.90;;;;;;5107670;28;20146;-67
2021/08/08 05:57:41;;;;;;;4.53;0.90;;;16.50;99.90;;;;;;5107373;28;20025;-67
2021/08/08 06:00:07;;;;;;;2.30;0.75;;;16.50;99.90;;;;;;5090958;28;20042;-69
2021/08/08 06:02:34;;;;;;;2.72;1.10;;;16.70;99.90;;;;;;5091639;28;20029;-68
2021/08/08 06:04:59;;;;;;;3.38;1.05;;;16.70;99.90;;;;;;5091905;28;20439;-68
2021/08/08 06:07:25;;;;;;;2.72;1.13;;;16.70;99.90;;;;;;5107138;28;20127;-68
2021/08/08 06:09:51;;;;;;;4.90;1.55;;;16.70;99.90;;;;;;5091776;28;20117;-68
2021/08/08 06:12:17;;;;;;;4.00;1.23;;;16.80;99.90;;;;;;5091955;28;20118;-68
2021/08/08 06:14:42;;;;;;;4.70;1.67;;;16.80;99.90;;;;;;5109844;28;20062;-68
2021/08/08 06:17:08;;;;;;;3.42;1.20;;;16.90;99.90;;;;;;5095870;28;20032;-67
2021/08/08 06:19:34;;;;;;;4.70;1.30;;;16.90;99.90;;;;;;5095603;28;20062;-68
2021/08/08 06:21:59;;;;;;;2.85;1.00;;;17.00;99.90;;;;;;5095490;28;20032;-67
2021/08/08 06:24:25;;;;;;;3.35;1.08;;;17.00;99.90;;;;;;5111112;28;20028;-68
2021/08/08 06:26:51;;;;;;;5.55;1.50;;;16.90;99.90;;;;;;5095416;28;20059;-68
2021/08/08 06:29:17;;;;;;;3.35;1.00;;;16.80;99.90;;;;;;5111359;28;20032;-69
2021/08/08 06:31:42;;;;;;;4.55;1.20;;;16.70;99.90;;;;;;5111153;28;20028;-67
2021/08/08 06:34:08;;;;;;;2.63;0.90;;;16.80;99.90;;;;;;5095220;28;20024;-66
2021/08/08 06:36:34;;;;;;;3.20;1.13;;;16.90;99.90;;;;;;5111015;28;20119;-66
2021/08/08 06:39:04;;;;;;;4.32;1.25;;;17.00;99.90;;;;;;5095320;28;20074;-67
2021/08/08 06:41:32;;;;;;;2.53;1.10;;;17.10;99.90;;;;;;5093616;28;20027;-66
2021/08/08 06:43:58;;;;;;;3.05;1.00;;;17.10;99.90;;;;;;5110790;28;20392;-66
2021/08/08 06:46:24;;;;;;;6.38;1.33;;;17.20;99.90;;;;;;5110830;28;20062;-66
2021/08/08 06:48:50;;;;;;;5.32;1.70;;;17.20;99.90;;;;;;5094937;28;20067;-66
2021/08/08 06:51:15;;;;;;;5.88;1.20;;;17.20;99.90;;;;;;5110894;28;20528;-66
2021/08/08 06:53:41;;;;;;;2.97;0.93;;;17.20;99.90;;;;;;5110542;28;20031;-67
2021/08/08 06:56:07;;;;;;;4.13;1.20;;;17.30;99.90;;;;;;5094854;28;20032;-67
2021/08/08 06:58:33;;;;;;;4.53;1.48;;;17.30;99.90;;;;;;5093740;28;20045;-67
2021/08/08 07:00:59;;;;;;;2.67;1.35;;;17.40;99.90;;;;;;5110400;28;20395;-67
2021/08/08 07:03:24;;;;;;;4.05;1.33;;;17.40;99.90;;;;;;5094901;28;20024;-67
2021/08/08 07:05:50;;;;;;;5.22;1.85;;;17.50;99.90;;;;;;5110589;28;20032;-67
2021/08/08 07:08:16;;;;;;;4.13;1.05;;;17.50;99.90;;;;;;5094576;28;20042;-67
2021/08/08 07:10:42;;;;;;;4.03;1.25;;;17.50;99.90;;;;;;5094457;28;20036;-66
2021/08/08 07:13:07;;;;;;;3.45;1.98;;;17.60;99.90;;;;;;5093390;28;20069;-66
2021/08/08 07:15:33;;;;;;;7.35;1.20;;;17.60;99.90;;;;;;5094192;28;20052;-67
2021/08/08 07:17:59;;;;;;;4.22;1.73;;;17.60;99.90;;;;;;5094995;28;20542;-66
2021/08/08 07:20:25;;;;;;;4.47;1.88;;;17.60;99.90;;;;;;5094789;28;20500;-66
2021/08/08 07:22:50;;;;;;;3.83;1.73;;;17.70;99.90;;;;;;5094400;28;20388;-66
2021/08/08 07:25:16;;;;;;;9.35;1.50;;;17.70;99.90;;;;;;5093772;28;20032;-66
2021/08/08 07:27:43;;;;;;;5.18;1.42;;;17.80;99.90;;;;;;5094402;28;20027;-67
2021/08/08 07:30:09;;;;;;;4.80;1.27;;;17.90;99.90;;;;;;5094223;28;20357;-66
2021/08/08 07:32:35;;;;;;;5.00;1.27;;;17.90;99.90;;;;;;5109918;28;20081;-66
2021/08/08 07:35:02;;;;;;;4.28;1.00;;;18.00;99.90;;;;;;5109967;28;20028;-67
2021/08/08 07:37:28;;;;;;;3.70;1.08;;;17.90;99.90;;;;;;5093846;28;20047;-67
2021/08/08 07:39:54;;;;;;;3.00;1.00;;;18.00;99.90;;;;;;5094104;28;20031;-69
2021/08/08 07:42:20;;;;;;;2.70;1.00;;;18.10;99.90;;;;;;5094174;28;20066;-69
2021/08/08 07:44:46;;;;;;;5.05;1.65;;;18.10;99.90;;;;;;5094060;28;20077;-72
2021/08/08 07:47:15;;;;;;;3.85;1.10;;;18.10;99.90;;;;;;5094277;28;20505;-68
2021/08/08 07:49:42;;;;;;;7.10;1.25;;;18.20;99.90;;;;;;5093861;28;20031;-68
2021/08/08 07:52:08;;;;;;;4.00;1.13;;;18.40;99.90;;;;;;5093775;28;20065;-68
2021/08/08 07:54:34;;;;;;;4.65;1.67;;;18.50;99.90;;;;;;5093625;28;20051;-63
2021/08/08 07:57:00;;;;;;;5.57;1.13;;;18.70;99.90;;;;;;5109629;28;20444;-66
2021/08/08 07:59:26;;;;;;;4.97;0.95;;;18.90;99.90;;;;;;5093860;28;20461;-62
2021/08/08 08:01:52;;;;;;;4.35;0.93;;;19.10;99.90;;;;;;5093561;28;20481;-63
2021/08/08 08:04:20;;;;;;;2.97;1.10;;;19.00;99.90;;;;;;5094109;28;20103;-60
2021/08/08 08:06:46;;;;;;;4.22;1.20;;;18.90;99.90;;;;;;5093678;28;20361;-61
2021/08/08 08:09:12;;;;;;;4.50;1.00;;;18.70;99.90;;;;;;5093709;28;20070;-61
2021/08/08 08:11:43;;;;;;;1.98;1.00;;;18.90;99.90;;;;;;5093206;28;20448;-61
2021/08/08 08:14:10;;;;;;;8.13;1.13;;;19.10;99.90;;;;;;5093340;28;20052;-61
2021/08/08 08:16:36;;;;;;;5.63;1.10;;;19.30;99.90;;;;;;5093391;28;20044;-60
2021/08/08 08:19:02;;;;;;;5.10;0.95;;;19.20;99.90;;;;;;5108826;28;20024;-61
2021/08/08 08:21:28;;;;;;;2.13;0.75;;;19.30;99.90;;;;;;5093530;28;20408;-60
2021/08/08 08:23:54;;;;;;;7.03;1.02;;;19.20;99.90;;;;;;5093232;28;20031;-61
2021/08/08 08:26:20;;;;;;;4.22;1.45;;;19.10;99.90;;;;;;5093451;28;20403;-60
2021/08/08 08:28:45;;;;;;;3.00;1.05;;;19.10;99.90;;;;;;5093232;28;20081;-61
2021/08/08 08:31:11;;;;;;;6.95;1.38;;;19.10;99.90;;;;;;5092986;28;20503;-62
2021/08/08 08:33:38;;;;;;;4.50;1.20;;;19.20;99.90;;;;;;5108692;28;20035;-61
2021/08/08 08:36:04;;;;;;;3.28;1.13;;;19.10;99.90;;;;;;5108207;28;20173;-62
2021/08/08 08:38:30;;;;;;;5.60;1.25;;;19.10;99.90;;;;;;5093017;28;20036;-62
2021/08/08 08:40:57;;;;;;;4.82;1.35;;;19.10;99.90;;;;;;5091503;28;20044;-61
2021/08/08 08:43:26;;;;;;;3.78;1.38;;;19.20;99.90;;;;;;5092951;28;20024;-64
2021/08/08 08:45:52;;;;;;;4.78;0.95;;;19.30;99.90;;;;;;5092667;28;20036;-66
2021/08/08 08:48:19;;;;;;;7.25;1.42;;;19.40;99.90;;;;;;5091390;28;20105;-74
2021/08/08 08:50:52;;;;;;;3.22;1.02;;;19.40;99.90;;;;;;5091304;28;20032;-74
2021/08/08 08:53:18;;;;;;;5.10;1.00;;;19.20;99.90;;;;;;5091896;28;20040;-76
2021/08/08 08:55:44;;;;;;;5.38;1.40;;;19.20;99.90;;;;;;5089727;28;20074;-76
2021/08/08 08:58:11;;;;;;;4.78;1.30;;;19.20;99.90;;;;;;5092765;28;20032;-81
2021/08/08 09:00:37;;;;;;;3.78;1.20;;;19.40;99.90;;;;;;5091298;28;20028;-77
2021/08/08 09:03:03;;;;;;;3.75;1.35;;;19.30;99.90;;;;;;5092704;28;20071;-85
2021/08/08 09:05:30;;;;;;;5.07;1.27;;;19.30;99.90;;;;;;5092666;28;20448;-73
2021/08/08 09:07:56;;;;;;;4.57;1.00;;;19.40;99.90;;;;;;5091161;28;20028;-76
2021/08/08 09:10:23;;;;;;;5.45;1.40;;;19.50;99.90;;;;;;5057886;28;20079;-77
2021/08/08 09:13:01;;;;;;;5.50;1.20;;;19.60;99.90;;;;;;5091395;28;20032;-74
2021/08/08 09:15:42;;;;;;;4.93;1.05;;;19.50;99.90;;;;;;5091010;28;20087;-69
2021/08/08 09:18:22;;;;;;;7.80;1.17;;;19.60;99.90;;;;;;5075146;28;20468;-71
2021/08/08 09:20:50;;;;;;;6.15;1.00;;;19.70;99.90;;;;;;5072227;28;20120;-71
2021/08/08 09:23:17;;;;;;;5.30;1.30;;;19.70;99.90;;;;;;5072399;28;20024;-69
2021/08/08 09:25:56;;;;;;;7.43;1.30;;;19.60;99.90;;;;;;5072246;28;20119;-71
2021/08/08 09:28:30;;;;;;;3.08;1.30;;;19.50;99.90;;;;;;5072180;28;20115;-70
2021/08/08 09:30:58;;;;;;;5.93;1.27;;;19.50;99.90;;;;;;5072211;28;20075;-71
2021/08/08 09:33:23;;;;;;;3.50;1.17;;;19.60;99.90;;;;;;5072194;28;20035;-71
2021/08/08 09:35:55;;;;;;;4.68;1.02;;;19.60;99.90;;;;;;5071567;28;20123;-71
2021/08/08 09:38:22;;;;;;;4.22;1.23;;;19.80;99.90;;;;;;5070579;28;20021;-71
2021/08/08 09:41:00;;;;;;;6.45;1.23;;;19.80;99.90;;;;;;5070213;28;20039;-72
2021/08/08 09:43:28;;;;;;;4.45;1.15;;;19.70;99.90;;;;;;5070672;28;20029;-69
2021/08/08 09:45:54;;;;;;;3.47;1.15;;;19.70;99.90;;;;;;5053937;28;20072;-70
2021/08/08 09:48:20;;;;;;;4.22;1.80;;;19.60;99.90;;;;;;5074083;28;20056;-69
2021/08/08 09:50:47;;;;;;;6.65;1.42;;;19.50;99.90;;;;;;5096115;28;20032;-71
2021/08/08 09:53:20;;;;;;;4.28;1.00;;;19.20;99.90;;;;;;5096444;28;20111;-70
2021/08/08 09:55:47;;;;;;;4.03;1.67;;;19.20;99.90;;;;;;5095957;28;20028;-70
2021/08/08 09:58:22;;;;;;;5.28;1.30;;;19.40;99.90;;;;;;5095244;28;20024;-69
2021/08/08 10:00:49;;;;;;;3.50;1.13;;;19.60;99.90;;;;;;5094518;28;20439;-69
2021/08/08 10:03:17;;;;;;;3.33;1.33;;;19.80;99.90;;;;;;5095817;28;20032;-69
2021/08/08 10:05:45;;;;;;;4.82;1.33;;;20.10;99.90;;;;;;5111215;28;20043;-69
2021/08/08 10:08:16;;;;;;;6.72;1.48;;;20.30;99.90;;;;;;5096087;28;20031;-69
2021/08/08 10:10:45;;;;;;;3.30;0.95;;;20.10;99.90;;;;;;5095998;28;20024;-69
2021/08/08 10:13:52;;;;;;;3.78;1.08;;;20.40;99.90;;;;;;5111741;28;20032;-69
2021/08/08 10:16:19;;;;;;;2.70;0.98;;;20.80;99.90;;;;;;5111015;28;20036;-70
2021/08/08 10:18:54;;;;;;;7.60;1.50;;;20.80;99.90;;;;;;5095579;28;20491;-69
2021/08/08 10:21:20;;;;;;;5.07;1.55;;;20.50;99.90;;;;;;5110779;28;20032;-70
2021/08/08 10:23:48;;;;;;;3.20;1.00;;;20.30;99.90;;;;;;5096336;28;20147;-70
2021/08/08 10:26:14;;;;;;;4.90;1.40;;;20.30;99.90;;;;;;5096130;28;20020;-70
2021/08/08 10:28:41;;;;;;;4.95;1.35;;;20.00;99.90;;;;;;5110392;28;20035;-70
2021/08/08 10:31:08;;;;;;;4.18;1.00;;;20.10;99.90;;;;;;5095824;28;20085;-70
2021/08/08 10:33:54;;;;;;;5.05;1.13;;;20.40;99.90;;;;;;5111353;28;20062;-70
2021/08/08 10:36:30;;;;;;;3.83;1.20;;;20.50;99.90;;;;;;5094108;28;20032;-70
2021/08/08 10:39:11;;;;;;;5.45;1.65;;;20.50;99.90;;;;;;5095586;28;20032;-70
2021/08/08 10:41:38;;;;;;;3.78;1.00;;;20.80;99.90;;;;;;5094981;28;20449;-70
2021/08/08 10:44:09;;;;;;;5.65;1.33;;;21.20;99.90;;;;;;5095231;28;20028;-69
2021/08/08 10:46:47;;;;;;;;;;;21.30;99.30;;;;;;5111238;28;20032;-69
2021/08/08 10:49:13;;;;;;;4.47;1.25;;;21.30;99.70;;;;;;5093888;28;19984;-70
2021/08/08 10:51:38;;;;;;;4.40;1.30;;;21.30;99.10;;;;;;5110937;28;20031;-70
2021/08/08 10:54:08;;;;;;;4.63;0.93;;;21.20;99.00;;;;;;5094851;28;20069;-71
2021/08/08 10:56:49;;;;;;;5.97;1.88;;;21.30;98.30;;;;;;5094860;28;20119;-66
2021/08/08 10:59:20;;;;;;;;;;;21.20;98.80;;;;;;5092450;28;20173;-70
2021/08/08 11:01:47;;;;;;;;;;;21.30;98.30;;;;;;5062440;28;19954;-70
2021/08/08 11:04:14;;;;;;;4.65;1.27;;;21.50;97.20;;;;;;5094998;28;19912;-70
2021/08/08 11:06:42;;;;;;;4.38;0.82;;;21.40;96.60;;;;;;5094782;28;20039;-70
2021/08/08 11:09:08;;;;;;;4.30;0.95;;;21.50;95.70;;;;;;5093484;28;20028;-71
2021/08/08 11:11:38;;;;;;;5.22;1.00;;;21.60;96.40;;;;;;5094641;28;20055;-70
2021/08/08 11:14:17;;;;;;;3.33;0.70;;;21.80;95.80;;;;;;5093014;28;20047;-71
2021/08/08 11:16:57;;;;;;;3.97;0.93;;;21.70;95.20;;;;;;5094541;28;20039;-69
2021/08/08 11:19:42;;;;;;;3.58;1.00;;;21.50;95.50;;;;;;5093689;28;20123;-69
2021/08/08 11:22:21;;;;;;;3.80;1.00;;;21.30;96.30;;;;;;5094579;28;20112;-70
2021/08/08 11:25:03;;;;;;;3.90;1.20;;;21.30;96.30;;;;;;5077278;28;20036;-69
2021/08/08 11:27:35;;;;;;;3.42;1.20;;;21.40;96.80;;;;;;5093321;28;20040;-69
2021/08/08 11:30:06;;;;;;;5.85;1.17;;;21.40;96.40;;;;;;5076232;28;20052;-69
2021/08/08 11:32:34;;;;;;;4.25;1.08;;;21.40;96.50;;;;;;5094263;28;20064;-69
2021/08/08 11:35:08;;;;;;;3.30;1.05;;;21.60;96.60;;;;;;5093987;28;20039;-69
2021/08/08 11:37:38;;;;;;;6.30;1.33;;;21.30;96.30;;;;;;5094512;28;20485;-69
2021/08/08 11:40:30;;;;;;;3.50;1.25;;;21.40;97.00;;;;;;5076252;28;20047;-70
2021/08/08 11:42:56;;;;;;;5.38;1.75;;;21.40;96.40;;;;;;5093872;28;20510;-70
2021/08/08 11:45:47;;;;;;;5.45;1.10;;;21.30;97.20;;;;;;5094128;28;20055;-70
2021/08/08 11:48:18;;;;;;;8.30;1.30;;;21.30;96.90;;;;;;5094296;28;20082;-70
2021/08/08 11:51:02;;;;;;;3.88;1.38;;;21.30;97.00;;;;;;5085572;28;20111;-69
2021/08/08 11:53:36;;;;;;;4.88;1.27;;;21.20;97.40;;;;;;5033768;28;20079;-69
2021/08/08 11:56:24;;;;;;;4.78;1.45;;;21.30;96.50;;;;;;5033714;28;20034;-69
2021/08/08 11:58:55;;;;;;;4.18;1.17;;;21.50;97.30;;;;;;5018901;28;20045;-69
2021/08/08 12:01:23;;;;;;;5.80;1.15;;;21.50;96.10;;;;;;5014005;28;20402;-67
2021/08/08 12:03:51;;;;;;;4.25;1.10;;;21.50;96.40;;;;;;5028458;28;20042;-70
2021/08/08 12:06:24;;;;;;;7.45;1.15;;;21.50;96.60;;;;;;5013632;28;20057;-69
2021/08/08 12:08:54;;;;;;;5.90;1.35;;;21.60;96.60;;;;;;5029028;28;20038;-67
2021/08/08 12:11:21;;;;;;;4.32;1.15;;;21.60;96.80;;;;;;5013821;28;20553;-69
2021/08/08 12:14:06;;;;;;;4.95;1.23;;;21.60;96.90;;;;;;5028865;28;20061;-68
2021/08/08 12:16:37;;;;;;;3.80;1.35;;;22.20;96.90;;;;;;5028774;28;20041;-68
2021/08/08 12:19:07;;;;;;;5.13;1.40;;;22.60;95.40;;;;;;5013295;28;20061;-69
2021/08/08 12:21:40;;;;;;;4.20;1.13;;;22.60;95.00;;;;;;5013701;28;20113;-68
2021/08/08 12:24:10;;;;;;;3.97;0.98;;;22.60;95.60;;;;;;5028386;28;20589;-69
2021/08/08 12:26:41;;;;;;;5.22;1.38;;;22.30;95.60;;;;;;5013402;28;20030;-68
2021/08/08 12:29:07;;;;;;;3.60;1.88;;;22.00;95.80;;;;;;5011939;28;20065;-68
2021/08/08 12:31:36;;;;;;;3.35;1.20;;;22.00;96.40;;;;;;5013424;28;20033;-68
2021/08/08 12:34:03;;;;;;;4.25;1.00;;;22.00;96.00;;;;;;5011865;28;20029;-68
2021/08/08 12:36:40;;;;;;;6.65;1.38;;;22.00;96.10;;;;;;5012965;28;20465;-69
2021/08/08 12:39:06;;;;;;;4.72;1.30;;;21.70;96.50;;;;;;5011502;28;20125;-67
2021/08/08 12:41:39;;;;;;;3.53;1.15;;;21.70;96.90;;;;;;5012895;28;20088;-68
2021/08/08 12:44:06;;;;;;;4.82;1.20;;;21.60;96.90;;;;;;5011374;28;20034;-68
2021/08/08 12:46:41;;;;;;;3.47;1.38;;;21.60;97.00;;;;;;5012788;28;20398;-68
2021/08/08 12:49:11;;;;;;;2.17;1.05;;;21.90;96.20;;;;;;4995309;28;20038;-68
2021/08/08 12:51:41;;;;;;;3.50;0.93;;;22.00;96.10;;;;;;5017391;28;20087;-69